sensor_id;sensor_type;location;lat;lon;timestamp;pressure;altitude;pressure_sealevel;temperature;humidity
19208;BME280;9737;59.466;18.036;2023-03-21T00:00:46;96756.88;;;-0.09;83.35
19208;BME280;9737;59.466;18.036;2023-03-21T00:03:14;96767.88;;;-0.05;83.04
19208;BME280;9737;59.466;18.036;2023-03-21T00:05:43;96751.66;;;-0.09;82.86
19208;BME280;9737;59.466;18.036;2023-03-21T00:08:15;96759.63;;;-0.10;83.41
19208;BME280;9737;59.466;18.036;2023-03-21T00:10:43;96753.56;;;-0.11;82.87
19208;BME280;9737;59.466;18.036;2023-03-21T00:13:12;96761.13;;;-0.08;83.03
19208;BME280;9737;59.466;18.036;2023-03-21T00:15:41;96778.31;;;-0.05;83.16
19208;BME280;9737;59.466;18.036;2023-03-21T00:18:37;96765.41;;;-0.07;82.75
19208;BME280;9737;59.466;18.036;2023-03-21T00:21:10;96752.75;;;-0.11;83.15
19208;BME280;9737;59.466;18.036;2023-03-21T00:24:01;96757.69;;;-0.08;82.79
19208;BME280;9737;59.466;18.036;2023-03-21T00:26:28;96761.13;;;-0.08;83.41
19208;BME280;9737;59.466;18.036;2023-03-21T00:28:57;96749.72;;;-0.16;83.00
19208;BME280;9737;59.466;18.036;2023-03-21T00:31:25;96753.44;;;-0.09;83.19
19208;BME280;9737;59.466;18.036;2023-03-21T00:33:55;96725.91;;;-0.33;83.01
19208;BME280;9737;59.466;18.036;2023-03-21T00:36:23;96735.56;;;-0.14;83.16
19208;BME280;9737;59.466;18.036;2023-03-21T00:38:51;96732.69;;;-0.20;83.18
19208;BME280;9737;59.466;18.036;2023-03-21T00:41:19;96694.06;;;-0.26;83.04
19208;BME280;9737;59.466;18.036;2023-03-21T00:44:07;96674.38;;;-0.31;82.86
19208;BME280;9737;59.466;18.036;2023-03-21T00:46:34;96658.72;;;-0.40;83.07
19208;BME280;9737;59.466;18.036;2023-03-21T00:49:18;96673.56;;;-0.31;83.62
19208;BME280;9737;59.466;18.036;2023-03-21T00:51:47;96687.19;;;-0.27;83.60
19208;BME280;9737;59.466;18.036;2023-03-21T00:54:17;96700.94;;;-0.25;83.19
19208;BME280;9737;59.466;18.036;2023-03-21T00:56:45;96699.97;;;-0.24;83.59
19208;BME280;9737;59.466;18.036;2023-03-21T00:59:13;96707.81;;;-0.24;83.31
19208;BME280;9737;59.466;18.036;2023-03-21T01:01:41;96705.19;;;-0.24;83.37
19208;BME280;9737;59.466;18.036;2023-03-21T01:04:09;96698.31;;;-0.25;83.32
19208;BME280;9737;59.466;18.036;2023-03-21T01:06:42;96693.09;;;-0.25;83.01
19208;BME280;9737;59.466;18.036;2023-03-21T01:09:13;96694.75;;;-0.24;83.12
19208;BME280;9737;59.466;18.036;2023-03-21T01:11:43;96688.84;;;-0.26;83.52
19208;BME280;9737;59.466;18.036;2023-03-21T01:14:12;96668.34;;;-0.41;83.23
19208;BME280;9737;59.466;18.036;2023-03-21T01:16:49;96708.47;;;-0.22;83.02
19208;BME280;9737;59.466;18.036;2023-03-21T01:19:18;96688.97;;;-0.28;83.46
19208;BME280;9737;59.466;18.036;2023-03-21T01:22:00;96672.72;;;-0.32;83.27
19208;BME280;9737;59.466;18.036;2023-03-21T01:24:28;96662.84;;;-0.38;83.60
19208;BME280;9737;59.466;18.036;2023-03-21T01:26:57;96682.94;;;-0.28;83.54
19208;BME280;9737;59.466;18.036;2023-03-21T01:29:26;96646.34;;;-0.38;83.51
19208;BME280;9737;59.466;18.036;2023-03-21T01:31:53;96642.91;;;-0.39;82.90
19208;BME280;9737;59.466;18.036;2023-03-21T01:34:21;96648.13;;;-0.39;83.29
19208;BME280;9737;59.466;18.036;2023-03-21T01:36:49;96647.16;;;-0.38;83.12
19208;BME280;9737;59.466;18.036;2023-03-21T01:39:18;96631.09;;;-0.43;83.15
19208;BME280;9737;59.466;18.036;2023-03-21T01:41:47;96648.13;;;-0.39;83.20
19208;BME280;9737;59.466;18.036;2023-03-21T01:44:16;96628.06;;;-0.48;83.48
19208;BME280;9737;59.466;18.036;2023-03-21T01:46:45;96642.22;;;-0.41;83.41
19208;BME280;9737;59.466;18.036;2023-03-21T01:49:35;96619.16;;;-0.45;83.53
19208;BME280;9737;59.466;18.036;2023-03-21T01:52:08;96619.28;;;-0.47;83.50
19208;BME280;9737;59.466;18.036;2023-03-21T01:54:48;96645.53;;;-0.39;83.51
19208;BME280;9737;59.466;18.036;2023-03-21T01:57:19;96602.94;;;-0.49;83.27
19208;BME280;9737;59.466;18.036;2023-03-21T01:59:53;96616.66;;;-0.47;83.46
19208;BME280;9737;59.466;18.036;2023-03-21T02:02:24;96604.88;;;-0.51;83.39
19208;BME280;9737;59.466;18.036;2023-03-21T02:04:54;96615.03;;;-0.48;83.71
19208;BME280;9737;59.466;18.036;2023-03-21T02:07:27;96596.34;;;-0.53;83.55
19208;BME280;9737;59.466;18.036;2023-03-21T02:09:58;96639.75;;;-0.42;83.83
19208;BME280;9737;59.466;18.036;2023-03-21T02:12:26;96619.97;;;-0.45;83.81
19208;BME280;9737;59.466;18.036;2023-03-21T02:14:55;96619.41;;;-0.48;83.58
19208;BME280;9737;59.466;18.036;2023-03-21T02:17:28;96592.78;;;-0.52;83.33
19208;BME280;9737;59.466;18.036;2023-03-21T02:23:20;96604.72;;;-0.49;83.40
19208;BME280;9737;59.466;18.036;2023-03-21T02:26:14;96602.94;;;-0.49;83.29
19208;BME280;9737;59.466;18.036;2023-03-21T02:28:54;96600.47;;;-0.50;83.63
19208;BME280;9737;59.466;18.036;2023-03-21T02:31:27;96603.06;;;-0.50;83.57
19208;BME280;9737;59.466;18.036;2023-03-21T02:34:49;96611.72;;;-0.50;83.38
19208;BME280;9737;59.466;18.036;2023-03-21T02:37:23;96592.78;;;-0.52;83.54
19208;BME280;9737;59.466;18.036;2023-03-21T02:40:09;96598.81;;;-0.51;83.32
19208;BME280;9737;59.466;18.036;2023-03-21T02:42:53;96618.31;;;-0.46;83.82
19208;BME280;9737;59.466;18.036;2023-03-21T02:45:38;96599.66;;;-0.51;83.47
19208;BME280;9737;59.466;18.036;2023-03-21T02:48:13;96593.75;;;-0.53;83.26
19208;BME280;9737;59.466;18.036;2023-03-21T02:50:57;96599.66;;;-0.51;83.77
19208;BME280;9737;59.466;18.036;2023-03-21T02:53:33;96590.31;;;-0.53;83.45
19208;BME280;9737;59.466;18.036;2023-03-21T02:56:06;96603.75;;;-0.48;83.24
19208;BME280;9737;59.466;18.036;2023-03-21T02:58:37;96602.25;;;-0.51;83.80
19208;BME280;9737;59.466;18.036;2023-03-21T03:01:06;96589.75;;;-0.57;83.48
19208;BME280;9737;59.466;18.036;2023-03-21T03:03:34;96585.91;;;-0.53;83.44
19208;BME280;9737;59.466;18.036;2023-03-21T03:06:09;96621.63;;;-0.44;83.61
19208;BME280;9737;59.466;18.036;2023-03-21T03:08:53;96611.47;;;-0.47;83.88
19208;BME280;9737;59.466;18.036;2023-03-21T03:11:30;96583.56;;;-0.56;83.67
19208;BME280;9737;59.466;18.036;2023-03-21T03:14:13;96570.66;;;-0.57;83.44
19208;BME280;9737;59.466;18.036;2023-03-21T03:17:13;96569.13;;;-0.60;83.64
19208;BME280;9737;59.466;18.036;2023-03-21T03:19:56;96566.66;;;-0.62;83.95
19208;BME280;9737;59.466;18.036;2023-03-21T03:22:47;96563.91;;;-0.60;83.79
19208;BME280;9737;59.466;18.036;2023-03-21T03:25:25;96595.53;;;-0.53;83.74
19208;BME280;9737;59.466;18.036;2023-03-21T03:28:08;96607.19;;;-0.48;83.88
19208;BME280;9737;59.466;18.036;2023-03-21T03:30:38;96574.91;;;-0.56;83.66
19208;BME280;9737;59.466;18.036;2023-03-21T03:33:20;96568.16;;;-0.59;83.90
19208;BME280;9737;59.466;18.036;2023-03-21T03:35:50;96552.91;;;-0.64;83.50
19208;BME280;9737;59.466;18.036;2023-03-21T03:38:33;96552.91;;;-0.64;84.09
19208;BME280;9737;59.466;18.036;2023-03-21T03:41:08;96535.91;;;-0.68;84.00
19208;BME280;9737;59.466;18.036;2023-03-21T03:43:41;96509.53;;;-0.74;83.86
19208;BME280;9737;59.466;18.036;2023-03-21T03:46:16;96546.88;;;-0.64;84.17
19208;BME280;9737;59.466;18.036;2023-03-21T03:48:48;96573.38;;;-0.59;83.77
19208;BME280;9737;59.466;18.036;2023-03-21T03:51:22;96506.81;;;-0.82;84.04
19208;BME280;9737;59.466;18.036;2023-03-21T03:53:54;96536.72;;;-0.67;84.13
19208;BME280;9737;59.466;18.036;2023-03-21T03:56:25;96499.38;;;-0.77;83.58
19208;BME280;9737;59.466;18.036;2023-03-21T03:58:55;96485.25;;;-0.84;83.88
19208;BME280;9737;59.466;18.036;2023-03-21T04:01:23;96493.63;;;-0.81;83.62
19208;BME280;9737;59.466;18.036;2023-03-21T04:03:52;96502.00;;;-0.77;83.45
19208;BME280;9737;59.466;18.036;2023-03-21T04:06:37;96453.38;;;-0.88;83.96
19208;BME280;9737;59.466;18.036;2023-03-21T04:09:05;96471.38;;;-0.85;84.09
19208;BME280;9737;59.466;18.036;2023-03-21T04:11:47;96482.38;;;-0.81;83.73
19208;BME280;9737;59.466;18.036;2023-03-21T04:14:15;96453.78;;;-0.93;84.08
19208;BME280;9737;59.466;18.036;2023-03-21T04:16:43;96453.50;;;-0.89;83.90
19208;BME280;9737;59.466;18.036;2023-03-21T04:19:12;96472.22;;;-0.84;83.95
19208;BME280;9737;59.466;18.036;2023-03-21T04:21:41;96455.97;;;-0.88;83.83
19208;BME280;9737;59.466;18.036;2023-03-21T04:24:09;96459.41;;;-0.87;83.60
19208;BME280;9737;59.466;18.036;2023-03-21T04:26:37;96447.75;;;-0.93;83.88
19208;BME280;9737;59.466;18.036;2023-03-21T04:29:06;96454.47;;;-0.90;83.74
19208;BME280;9737;59.466;18.036;2023-03-21T04:31:34;96489.22;;;-0.80;84.21
19208;BME280;9737;59.466;18.036;2023-03-21T04:34:04;96481.53;;;-0.82;84.00
19208;BME280;9737;59.466;18.036;2023-03-21T04:36:37;96468.91;;;-0.86;83.58
19208;BME280;9737;59.466;18.036;2023-03-21T04:39:08;96466.16;;;-0.85;84.14
19208;BME280;9737;59.466;18.036;2023-03-21T04:41:39;96468.78;;;-0.85;84.17
19208;BME280;9737;59.466;18.036;2023-03-21T04:44:09;96473.84;;;-0.83;83.94
19208;BME280;9737;59.466;18.036;2023-03-21T04:46:38;96479.06;;;-0.83;84.10
19208;BME280;9737;59.466;18.036;2023-03-21T04:49:07;96492.81;;;-0.81;83.96
19208;BME280;9737;59.466;18.036;2023-03-21T04:51:35;96481.00;;;-0.85;84.13
19208;BME280;9737;59.466;18.036;2023-03-21T04:54:04;96498.00;;;-0.81;84.08
19208;BME280;9737;59.466;18.036;2023-03-21T04:56:32;96570.78;;;-0.59;84.15
19208;BME280;9737;59.466;18.036;2023-03-21T04:59:06;96578.59;;;-0.59;83.91
19208;BME280;9737;59.466;18.036;2023-03-21T05:01:36;96542.22;;;-0.70;83.85
19208;BME280;9737;59.466;18.036;2023-03-21T05:04:06;96527.25;;;-0.68;84.02
19208;BME280;9737;59.466;18.036;2023-03-21T05:06:34;96500.47;;;-0.80;83.97
19208;BME280;9737;59.466;18.036;2023-03-21T05:09:03;96526.56;;;-0.70;83.95
19208;BME280;9737;59.466;18.036;2023-03-21T05:11:34;96537.69;;;-0.68;83.82
19208;BME280;9737;59.466;18.036;2023-03-21T05:14:03;96543.59;;;-0.66;83.76
19208;BME280;9737;59.466;18.036;2023-03-21T05:16:31;96546.19;;;-0.66;84.02
19208;BME280;9737;59.466;18.036;2023-03-21T05:19:02;96528.50;;;-0.72;84.11
19208;BME280;9737;59.466;18.036;2023-03-21T05:21:31;96548.66;;;-0.65;84.06
19208;BME280;9737;59.466;18.036;2023-03-21T05:24:07;96585.38;;;-0.56;84.01
19208;BME280;9737;59.466;18.036;2023-03-21T05:26:37;96571.75;;;-0.60;84.31
19208;BME280;9737;59.466;18.036;2023-03-21T05:29:06;96594.69;;;-0.54;84.10
19208;BME280;9737;59.466;18.036;2023-03-21T05:31:34;96608.16;;;-0.49;84.40
19208;BME280;9737;59.466;18.036;2023-03-21T05:34:04;96601.56;;;-0.53;84.03
19208;BME280;9737;59.466;18.036;2023-03-21T05:36:31;96598.00;;;-0.52;83.80
19208;BME280;9737;59.466;18.036;2023-03-21T05:39:01;96660.09;;;-0.36;84.27
19208;BME280;9737;59.466;18.036;2023-03-21T05:41:30;96707.81;;;-0.24;84.30
19208;BME280;9737;59.466;18.036;2023-03-21T05:43:58;96704.38;;;-0.25;84.23
19208;BME280;9737;59.466;18.036;2023-03-21T05:46:26;96698.31;;;-0.25;84.11
19208;BME280;9737;59.466;18.036;2023-03-21T05:48:54;96687.28;;;-0.29;84.01
19208;BME280;9737;59.466;18.036;2023-03-21T05:51:23;96741.63;;;-0.13;84.46
19208;BME280;9737;59.466;18.036;2023-03-21T05:53:51;96772.41;;;-0.07;84.45
19208;BME280;9737;59.466;18.036;2023-03-21T05:56:19;96764.56;;;-0.07;84.24
19208;BME280;9737;59.466;18.036;2023-03-21T05:58:46;96722.63;;;-0.25;84.09
19208;BME280;9737;59.466;18.036;2023-03-21T06:01:14;96739.97;;;-0.14;84.21
19208;BME280;9737;59.466;18.036;2023-03-21T06:03:42;96764.56;;;-0.07;83.97
19208;BME280;9737;59.466;18.036;2023-03-21T06:06:10;96776.66;;;-0.06;84.32
19208;BME280;9737;59.466;18.036;2023-03-21T06:08:39;96734.06;;;-0.16;84.48
19208;BME280;9737;59.466;18.036;2023-03-21T06:11:16;96736.66;;;-0.16;84.34
19208;BME280;9737;59.466;18.036;2023-03-21T06:13:46;96779.97;;;-0.04;84.61
19208;BME280;9737;59.466;18.036;2023-03-21T06:16:14;96780.78;;;-0.04;84.02
19208;BME280;9737;59.466;18.036;2023-03-21T06:18:42;96854.13;;;0.14;84.16
19208;BME280;9737;59.466;18.036;2023-03-21T06:21:10;96897.47;;;0.26;84.24
19208;BME280;9737;59.466;18.036;2023-03-21T06:23:39;96926.38;;;0.35;84.18
19208;BME280;9737;59.466;18.036;2023-03-21T06:26:07;96957.22;;;0.41;84.60
19208;BME280;9737;59.466;18.036;2023-03-21T06:28:35;97045.63;;;0.66;84.43
19208;BME280;9737;59.466;18.036;2023-03-21T06:31:03;97021.81;;;0.59;84.43
19208;BME280;9737;59.466;18.036;2023-03-21T06:33:31;97108.03;;;0.80;84.58
19208;BME280;9737;59.466;18.036;2023-03-21T06:35:59;97148.97;;;0.91;84.52
19208;BME280;9737;59.466;18.036;2023-03-21T06:38:28;97086.69;;;0.75;84.33
19208;BME280;9737;59.466;18.036;2023-03-21T06:40:58;97103.06;;;0.77;84.65
19208;BME280;9737;59.466;18.036;2023-03-21T06:43:30;97132.13;;;0.84;84.42
19208;BME280;9737;59.466;18.036;2023-03-21T06:45:58;97206.31;;;1.04;84.32
19208;BME280;9737;59.466;18.036;2023-03-21T06:48:26;97223.41;;;1.08;84.41
19208;BME280;9737;59.466;18.036;2023-03-21T06:50:54;97183.97;;;1.00;84.35
19208;BME280;9737;59.466;18.036;2023-03-21T06:53:24;97235.25;;;1.12;84.47
19208;BME280;9737;59.466;18.036;2023-03-21T06:55:53;97226.72;;;1.10;84.55
19208;BME280;9737;59.466;18.036;2023-03-21T06:58:23;97225.06;;;1.09;84.22
19208;BME280;9737;59.466;18.036;2023-03-21T07:00:51;97233.47;;;1.12;84.77
19208;BME280;9737;59.466;18.036;2023-03-21T07:03:19;97234.56;;;1.10;84.52
19208;BME280;9737;59.466;18.036;2023-03-21T07:05:46;97278.72;;;1.24;84.45
19208;BME280;9737;59.466;18.036;2023-03-21T07:08:14;97328.25;;;1.37;84.38
19208;BME280;9737;59.466;18.036;2023-03-21T07:10:43;97402.63;;;1.55;84.53
19208;BME280;9737;59.466;18.036;2023-03-21T07:13:12;97489.56;;;1.70;84.45
19208;BME280;9737;59.466;18.036;2023-03-21T07:15:42;97517.94;;;1.85;84.37
19208;BME280;9737;59.466;18.036;2023-03-21T07:18:10;97619.91;;;2.09;84.60
19208;BME280;9737;59.466;18.036;2023-03-21T07:20:37;97747.53;;;2.41;84.72
19208;BME280;9737;59.466;18.036;2023-03-21T07:23:05;97818.50;;;2.60;84.60
19208;BME280;9737;59.466;18.036;2023-03-21T07:25:33;97772.28;;;2.48;84.58
19208;BME280;9737;59.466;18.036;2023-03-21T07:28:02;97801.34;;;2.56;84.74
19208;BME280;9737;59.466;18.036;2023-03-21T07:30:34;97773.94;;;2.49;84.59
19208;BME280;9737;59.466;18.036;2023-03-21T07:33:04;97807.41;;;2.57;84.63
19208;BME280;9737;59.466;18.036;2023-03-21T07:35:33;97809.91;;;2.58;84.68
19208;BME280;9737;59.466;18.036;2023-03-21T07:38:02;97847.81;;;2.65;84.64
19208;BME280;9737;59.466;18.036;2023-03-21T07:40:31;97877.59;;;2.75;84.41
19208;BME280;9737;59.466;18.036;2023-03-21T07:42:59;97867.34;;;2.72;84.54
19208;BME280;9737;59.466;18.036;2023-03-21T07:45:28;97880.22;;;2.75;84.84
19208;BME280;9737;59.466;18.036;2023-03-21T07:47:56;97808.25;;;2.57;84.64
19208;BME280;9737;59.466;18.036;2023-03-21T07:50:25;97940.06;;;2.93;84.70
19208;BME280;9737;59.466;18.036;2023-03-21T07:52:53;98012.06;;;3.11;84.73
19208;BME280;9737;59.466;18.036;2023-03-21T07:55:21;98010.41;;;3.10;84.35
19208;BME280;9737;59.466;18.036;2023-03-21T07:57:49;97969.41;;;2.98;84.82
19208;BME280;9737;59.466;18.036;2023-03-21T08:00:19;98061.13;;;3.22;84.90
19208;BME280;9737;59.466;18.036;2023-03-21T08:02:50;98111.81;;;3.33;84.54
19208;BME280;9737;59.466;18.036;2023-03-21T08:05:27;98281.63;;;3.79;84.61
19208;BME280;9737;59.466;18.036;2023-03-21T08:07:55;98251.75;;;3.69;84.63
19208;BME280;9737;59.466;18.036;2023-03-21T08:10:23;98315.44;;;3.84;84.67
19208;BME280;9737;59.466;18.036;2023-03-21T08:12:52;98247.44;;;3.68;84.42
19208;BME280;9737;59.466;18.036;2023-03-21T08:15:20;98132.34;;;3.39;84.74
19208;BME280;9737;59.466;18.036;2023-03-21T08:17:48;98080.09;;;3.25;84.81
19208;BME280;9737;59.466;18.036;2023-03-21T08:20:18;98041.41;;;3.16;84.59
19208;BME280;9737;59.466;18.036;2023-03-21T08:22:49;98032.81;;;3.14;84.54
19208;BME280;9737;59.466;18.036;2023-03-21T08:25:19;98172.00;;;3.48;84.69
19208;BME280;9737;59.466;18.036;2023-03-21T08:27:48;98231.22;;;3.63;84.46
19208;BME280;9737;59.466;18.036;2023-03-21T08:30:18;98264.63;;;3.72;84.53
19208;BME280;9737;59.466;18.036;2023-03-21T08:32:47;98425.41;;;4.12;84.47
19208;BME280;9737;59.466;18.036;2023-03-21T08:35:16;98578.47;;;4.51;84.45
19208;BME280;9737;59.466;18.036;2023-03-21T08:37:44;98569.03;;;4.48;85.09
19208;BME280;9737;59.466;18.036;2023-03-21T08:40:16;98613.78;;;4.59;84.65
19208;BME280;9737;59.466;18.036;2023-03-21T08:42:44;98777.63;;;4.98;84.97
19208;BME280;9737;59.466;18.036;2023-03-21T08:45:15;98804.31;;;5.05;84.23
19208;BME280;9737;59.466;18.036;2023-03-21T08:47:43;98830.09;;;5.12;85.20
19208;BME280;9737;59.466;18.036;2023-03-21T08:50:13;98850.69;;;5.18;84.51
19208;BME280;9737;59.466;18.036;2023-03-21T08:52:42;98848.06;;;5.18;84.18
19208;BME280;9737;59.466;18.036;2023-03-21T08:55:11;98836.06;;;5.14;84.58
19208;BME280;9737;59.466;18.036;2023-03-21T08:57:41;98825.03;;;5.09;85.05
19208;BME280;9737;59.466;18.036;2023-03-21T09:00:11;99011.16;;;5.58;85.01
19208;BME280;9737;59.466;18.036;2023-03-21T09:02:41;99259.81;;;6.20;84.74
19208;BME280;9737;59.466;18.036;2023-03-21T09:05:10;99325.53;;;6.36;84.47
19208;BME280;9737;59.466;18.036;2023-03-21T09:07:38;99531.50;;;6.86;84.82
19208;BME280;9737;59.466;18.036;2023-03-21T09:10:09;99741.84;;;7.39;84.61
19208;BME280;9737;59.466;18.036;2023-03-21T09:12:50;99814.84;;;7.54;84.50
19208;BME280;9737;59.466;18.036;2023-03-21T09:15:19;99817.41;;;7.56;84.27
19208;BME280;9737;59.466;18.036;2023-03-21T09:17:47;99710.78;;;7.30;84.72
19208;BME280;9737;59.466;18.036;2023-03-21T09:20:19;99766.41;;;7.41;84.52
19208;BME280;9737;59.466;18.036;2023-03-21T09:22:52;99951.09;;;7.87;84.35
19208;BME280;9737;59.466;18.036;2023-03-21T09:25:20;100306.09;;;8.77;84.34
19208;BME280;9737;59.466;18.036;2023-03-21T09:27:50;100977.06;;;10.37;84.09
19208;BME280;9737;59.466;18.036;2023-03-21T09:30:20;101195.63;;;10.86;84.38
19208;BME280;9737;59.466;18.036;2023-03-21T09:32:51;101268.16;;;11.04;84.39
19208;BME280;9737;59.466;18.036;2023-03-21T09:35:21;101330.31;;;11.17;84.08
19208;BME280;9737;59.466;18.036;2023-03-21T09:37:50;101932.97;;;12.62;84.54
19208;BME280;9737;59.466;18.036;2023-03-21T09:40:20;102270.50;;;13.39;84.38
19208;BME280;9737;59.466;18.036;2023-03-21T09:42:59;102506.38;;;13.92;84.23
19208;BME280;9737;59.466;18.036;2023-03-21T09:45:35;102013.03;;;12.78;84.55
19208;BME280;9737;59.466;18.036;2023-03-21T09:48:13;101446.75;;;11.43;84.41
19208;BME280;9737;59.466;18.036;2023-03-21T09:50:45;101291.91;;;11.07;84.47
19208;BME280;9737;59.466;18.036;2023-03-21T09:53:17;101660.28;;;11.97;84.43
19208;BME280;9737;59.466;18.036;2023-03-21T09:55:49;102238.16;;;13.27;84.31
19208;BME280;9737;59.466;18.036;2023-03-21T09:58:24;102423.66;;;13.72;84.40
19208;BME280;9737;59.466;18.036;2023-03-21T10:01:00;103212.09;;;15.55;84.12
19208;BME280;9737;59.466;18.036;2023-03-21T10:03:31;103260.16;;;15.61;84.31
19208;BME280;9737;59.466;18.036;2023-03-21T10:06:03;102946.44;;;14.91;84.04
19208;BME280;9737;59.466;18.036;2023-03-21T10:08:36;103904.09;;;17.05;84.16
19208;BME280;9737;59.466;18.036;2023-03-21T10:11:12;104151.97;;;17.57;83.91
19208;BME280;9737;59.466;18.036;2023-03-21T10:13:47;104196.38;;;17.69;84.25
19208;BME280;9737;59.466;18.036;2023-03-21T10:16:20;103844.59;;;16.94;84.00
19208;BME280;9737;59.466;18.036;2023-03-21T10:18:49;103604.41;;;16.38;84.05
19208;BME280;9737;59.466;18.036;2023-03-21T10:21:20;104056.00;;;17.37;83.77
19208;BME280;9737;59.466;18.036;2023-03-21T10:24:11;103986.72;;;17.22;83.90
19208;BME280;9737;59.466;18.036;2023-03-21T10:26:39;103670.06;;;16.52;84.38
19208;BME280;9737;59.466;18.036;2023-03-21T10:29:11;103306.94;;;15.73;83.92
19208;BME280;9737;59.466;18.036;2023-03-21T10:31:41;103430.84;;;16.00;83.98
19208;BME280;9737;59.466;18.036;2023-03-21T10:34:15;103491.06;;;16.13;83.70
19208;BME280;9737;59.466;18.036;2023-03-21T10:36:44;103156.66;;;15.38;83.96
19208;BME280;9737;59.466;18.036;2023-03-21T10:39:20;103223.94;;;15.51;83.52
19208;BME280;9737;59.466;18.036;2023-03-21T10:41:51;103223.88;;;15.53;83.80
19208;BME280;9737;59.466;18.036;2023-03-21T10:44:20;103681.47;;;16.57;83.63
19208;BME280;9737;59.466;18.036;2023-03-21T10:46:50;103704.56;;;16.61;83.57
19208;BME280;9737;59.466;18.036;2023-03-21T10:49:19;104562.81;;;18.50;83.21
19208;BME280;9737;59.466;18.036;2023-03-21T10:51:50;104341.25;;;18.01;83.35
19208;BME280;9737;59.466;18.036;2023-03-21T10:54:20;104476.47;;;18.31;83.37
19208;BME280;9737;59.466;18.036;2023-03-21T10:56:55;104541.44;;;18.45;83.17
19208;BME280;9737;59.466;18.036;2023-03-21T10:59:26;104274.50;;;17.87;83.30
19208;BME280;9737;59.466;18.036;2023-03-21T11:01:56;104312.78;;;17.95;83.00
19208;BME280;9737;59.466;18.036;2023-03-21T11:04:26;104716.94;;;18.84;82.95
19208;BME280;9737;59.466;18.036;2023-03-21T11:06:57;105208.53;;;19.92;82.77
19208;BME280;9737;59.466;18.036;2023-03-21T11:09:42;105184.53;;;19.85;82.82
19208;BME280;9737;59.466;18.036;2023-03-21T11:12:12;105244.28;;;20.00;82.65
19208;BME280;9737;59.466;18.036;2023-03-21T11:14:44;105600.34;;;20.75;82.53
19208;BME280;9737;59.466;18.036;2023-03-21T11:17:21;105218.41;;;19.93;82.57
19208;BME280;9737;59.466;18.036;2023-03-21T11:19:51;104428.38;;;18.22;82.68
19208;BME280;9737;59.466;18.036;2023-03-21T11:22:21;104659.75;;;18.75;82.31
19208;BME280;9737;59.466;18.036;2023-03-21T11:24:51;104580.50;;;18.57;82.46
19208;BME280;9737;59.466;18.036;2023-03-21T11:27:19;104670.38;;;18.79;82.21
19208;BME280;9737;59.466;18.036;2023-03-21T11:29:50;105286.19;;;20.12;81.91
19208;BME280;9737;59.466;18.036;2023-03-21T11:32:24;105148.56;;;19.83;81.98
19208;BME280;9737;59.466;18.036;2023-03-21T11:34:57;105138.78;;;19.80;81.92
19208;BME280;9737;59.466;18.036;2023-03-21T11:37:27;105295.09;;;20.14;81.78
19208;BME280;9737;59.466;18.036;2023-03-21T11:40:03;105218.25;;;19.98;81.65
19208;BME280;9737;59.466;18.036;2023-03-21T11:42:40;105359.44;;;20.29;81.51
19208;BME280;9737;59.466;18.036;2023-03-21T11:45:14;105371.97;;;20.32;81.48
19208;BME280;9737;59.466;18.036;2023-03-21T11:47:42;105279.88;;;20.11;81.51
19208;BME280;9737;59.466;18.036;2023-03-21T11:50:16;105736.28;;;21.09;81.07
19208;BME280;9737;59.466;18.036;2023-03-21T11:52:52;105940.72;;;21.52;81.09
19208;BME280;9737;59.466;18.036;2023-03-21T11:55:31;106003.47;;;21.66;80.93
19208;BME280;9737;59.466;18.036;2023-03-21T11:58:23;105428.25;;;20.46;81.12
19208;BME280;9737;59.466;18.036;2023-03-21T12:01:04;105477.47;;;20.57;80.79
19208;BME280;9737;59.466;18.036;2023-03-21T12:03:46;105243.91;;;20.09;80.69
19208;BME280;9737;59.466;18.036;2023-03-21T12:06:20;105110.81;;;19.81;80.50
19208;BME280;9737;59.466;18.036;2023-03-21T12:08:57;105090.13;;;19.80;80.45
19208;BME280;9737;59.466;18.036;2023-03-21T12:11:36;104947.34;;;19.47;80.27
19208;BME280;9737;59.466;18.036;2023-03-21T12:14:11;104233.88;;;17.92;80.28
19208;BME280;9737;59.466;18.036;2023-03-21T12:16:52;103931.84;;;17.26;80.14
19208;BME280;9737;59.466;18.036;2023-03-21T12:19:38;103808.31;;;17.02;80.20
19208;BME280;9737;59.466;18.036;2023-03-21T12:22:12;103834.16;;;17.07;79.83
19208;BME280;9737;59.466;18.036;2023-03-21T12:24:49;103750.78;;;16.88;79.66
19208;BME280;9737;59.466;18.036;2023-03-21T12:27:24;103621.31;;;16.59;79.62
19208;BME280;9737;59.466;18.036;2023-03-21T12:30:04;103222.97;;;15.71;79.61
19208;BME280;9737;59.466;18.036;2023-03-21T12:32:51;102996.72;;;15.20;79.32
19208;BME280;9737;59.466;18.036;2023-03-21T12:35:33;102939.25;;;15.08;79.33
19208;BME280;9737;59.466;18.036;2023-03-21T12:38:14;103042.44;;;15.34;79.16
19208;BME280;9737;59.466;18.036;2023-03-21T12:40:59;103408.44;;;16.18;79.05
19208;BME280;9737;59.466;18.036;2023-03-21T12:43:40;103312.97;;;15.95;78.98
19208;BME280;9737;59.466;18.036;2023-03-21T12:46:14;103572.22;;;16.56;78.83
19208;BME280;9737;59.466;18.036;2023-03-21T12:48:48;103535.91;;;16.47;78.68
19208;BME280;9737;59.466;18.036;2023-03-21T12:51:19;103481.94;;;16.34;78.47
19208;BME280;9737;59.466;18.036;2023-03-21T12:53:55;103285.44;;;15.92;78.48
19208;BME280;9737;59.466;18.036;2023-03-21T12:56:29;102966.78;;;15.12;78.51
19208;BME280;9737;59.466;18.036;2023-03-21T12:59:03;103012.13;;;15.32;78.26
19208;BME280;9737;59.466;18.036;2023-03-21T13:01:33;103128.72;;;15.60;77.93
19208;BME280;9737;59.466;18.036;2023-03-21T13:04:20;103030.69;;;15.37;78.05
19208;BME280;9737;59.466;18.036;2023-03-21T13:07:05;103126.88;;;15.62;77.94
19208;BME280;9737;59.466;18.036;2023-03-21T13:09:40;102768.56;;;14.77;77.76
19208;BME280;9737;59.466;18.036;2023-03-21T13:12:18;102893.78;;;15.07;77.37
19208;BME280;9737;59.466;18.036;2023-03-21T13:14:58;102586.84;;;14.37;77.31
19208;BME280;9737;59.466;18.036;2023-03-21T13:17:40;102419.63;;;13.97;77.24
19208;BME280;9737;59.466;18.036;2023-03-21T13:20:20;102112.56;;;13.27;77.49
19208;BME280;9737;59.466;18.036;2023-03-21T13:22:49;101903.66;;;12.77;77.33
19208;BME280;9737;59.466;18.036;2023-03-21T13:25:18;101812.28;;;12.57;77.06
19208;BME280;9737;59.466;18.036;2023-03-21T13:27:51;101575.53;;;12.02;77.02
19208;BME280;9737;59.466;18.036;2023-03-21T13:30:21;101478.22;;;11.81;77.08